Time;durP1;ratioP1;P1;durP2;ratioP2;P2;SDS_P1;SDS_P2;PMS_P1;PMS_P2;Temp;Humidity;BMP_temperature;BMP_pressure;BME280_temperature;BME280_humidity;BME280_pressure;Samples;Min_cycle;Max_cycle;Signal;HPM_P1;HPM_P2
2022/10/14 00:01:49;;;;;;;13.60;11.83;;;13.50;99.90;;;;;;5029682;28;20194;-37
2022/10/14 00:04:14;;;;;;;18.40;13.30;;;13.50;99.90;;;;;;5028826;28;20313;-38
2022/10/14 00:06:40;;;;;;;16.90;12.43;;;13.50;99.90;;;;;;5029676;28;20651;-37
2022/10/14 00:09:08;;;;;;;15.63;12.43;;;13.50;99.90;;;;;;5027783;28;20196;-37
2022/10/14 00:11:35;;;;;;;18.47;12.33;;;13.50;99.90;;;;;;5029543;28;20187;-38
2022/10/14 00:14:09;;;;;;;14.10;12.10;;;13.60;99.90;;;;;;5028794;28;20612;-38
2022/10/14 00:16:37;;;;;;;14.27;12.37;;;13.60;99.90;;;;;;5029596;28;20443;-38
2022/10/14 00:19:05;;;;;;;15.70;12.00;;;13.60;99.90;;;;;;5029459;28;20480;-38
2022/10/14 00:21:32;;;;;;;15.37;12.57;;;13.60;99.90;;;;;;5041491;28;20433;-37
2022/10/14 00:23:57;;;;;;;14.43;11.80;;;13.60;99.90;;;;;;5028726;28;20511;-37
2022/10/14 00:26:34;;;;;;;14.10;12.60;;;13.60;99.90;;;;;;5029590;28;20429;-37
2022/10/14 00:29:02;;;;;;;13.27;11.97;;;13.50;99.90;;;;;;5029541;28;20189;-38
2022/10/14 00:31:28;;;;;;;16.37;12.47;;;13.50;99.90;;;;;;5035182;28;20511;-38
2022/10/14 00:33:54;;;;;;;14.63;13.13;;;13.60;99.90;;;;;;5048094;28;20427;-38
2022/10/14 00:36:22;;;;;;;16.37;13.43;;;13.60;99.90;;;;;;5049235;28;20881;-37
2022/10/14 00:38:48;;;;;;;16.20;13.57;;;13.60;99.90;;;;;;5047982;28;20781;-38
2022/10/14 00:41:18;;;;;;;17.20;12.60;;;13.60;99.90;;;;;;5048853;28;20438;-38
2022/10/14 00:43:56;;;;;;;16.70;13.07;;;13.60;99.90;;;;;;5048300;28;20927;-38
2022/10/14 00:46:23;;;;;;;15.60;13.30;;;13.60;99.90;;;;;;5048557;28;20510;-38
2022/10/14 00:48:50;;;;;;;14.17;12.67;;;13.60;99.90;;;;;;5048691;28;20490;-37
2022/10/14 00:51:16;;;;;;;16.97;14.10;;;13.60;99.90;;;;;;5016924;28;20920;-38
2022/10/14 00:53:43;;;;;;;16.10;14.30;;;13.60;99.90;;;;;;5028106;28;20438;-37
2022/10/14 00:56:10;;;;;;;17.27;13.70;;;13.60;99.90;;;;;;5027433;28;20421;-38
2022/10/14 00:58:37;;;;;;;14.80;13.30;;;13.60;99.90;;;;;;5028697;28;20825;-37
2022/10/14 01:01:03;;;;;;;18.77;14.43;;;13.60;99.90;;;;;;5028474;28;20429;-38
2022/10/14 01:03:32;;;;;;;19.00;13.67;;;13.60;99.90;;;;;;5028110;28;20487;-37
2022/10/14 01:06:07;;;;;;;16.60;14.50;;;13.50;99.90;;;;;;5028606;28;20441;-37
2022/10/14 01:08:45;;;;;;;19.70;15.40;;;13.50;99.90;;;;;;5028444;28;20420;-39
2022/10/14 01:11:29;;;;;;;21.57;15.47;;;13.60;99.90;;;;;;5028647;28;20429;-38
2022/10/14 01:14:17;;;;;;;18.00;16.07;;;13.60;99.90;;;;;;5027977;28;20456;-37
2022/10/14 01:17:06;;;;;;;17.10;14.63;;;13.60;99.90;;;;;;5028933;28;20432;-38
2022/10/14 01:20:10;;;;;;;19.77;14.97;;;13.60;99.90;;;;;;5027291;28;20448;-38
2022/10/14 01:22:45;;;;;;;19.10;14.60;;;13.60;99.90;;;;;;5022050;28;20428;-37
2022/10/14 01:25:31;;;;;;;18.27;15.53;;;13.60;99.90;;;;;;5027223;28;20471;-38
2022/10/14 01:28:18;;;;;;;17.13;15.17;;;13.60;99.90;;;;;;5028231;28;20753;-38
2022/10/14 01:30:48;;;;;;;16.70;14.90;;;13.60;99.90;;;;;;5027277;28;20860;-37
2022/10/14 01:33:28;;;;;;;16.63;14.50;;;13.50;99.90;;;;;;5027956;28;20955;-38
2022/10/14 01:36:07;;;;;;;16.70;14.83;;;13.60;99.90;;;;;;5028233;28;20428;-38
2022/10/14 01:39:03;;;;;;;16.37;14.67;;;13.60;99.90;;;;;;5028381;28;20890;-38
2022/10/14 01:41:40;;;;;;;15.60;13.20;;;13.60;99.90;;;;;;5028304;28;20424;-38
2022/10/14 01:44:09;;;;;;;16.40;13.53;;;13.60;99.90;;;;;;5027340;28;20913;-37
2022/10/14 01:46:38;;;;;;;16.30;14.60;;;13.60;99.90;;;;;;5027999;28;20425;-37
2022/10/14 01:49:10;;;;;;;16.83;13.67;;;13.60;99.90;;;;;;5028038;28;20441;-38
2022/10/14 01:51:49;;;;;;;16.67;14.23;;;13.60;99.90;;;;;;5028060;28;20429;-38
2022/10/14 01:54:21;;;;;;;15.60;14.00;;;13.60;99.90;;;;;;5014556;28;20804;-37
2022/10/14 01:56:49;;;;;;;20.03;14.73;;;13.60;99.90;;;;;;5028187;28;20425;-38
2022/10/14 01:59:17;;;;;;;14.77;13.23;;;13.60;99.90;;;;;;5027792;28;20429;-38
2022/10/14 02:01:43;;;;;;;15.63;13.10;;;13.60;99.90;;;;;;5028165;28;20837;-37
2022/10/14 02:04:26;;;;;;;14.70;13.20;;;13.60;99.90;;;;;;5027695;28;20476;-38
2022/10/14 02:07:09;;;;;;;13.87;12.47;;;13.60;99.90;;;;;;5027867;28;20190;-37
2022/10/14 02:09:46;;;;;;;18.93;13.70;;;13.60;99.90;;;;;;5027831;28;20492;-38
2022/10/14 02:12:18;;;;;;;12.97;11.60;;;13.60;99.90;;;;;;5026590;28;20919;-38
2022/10/14 02:14:55;;;;;;;14.50;12.23;;;13.60;99.90;;;;;;5026176;28;20417;-38
2022/10/14 02:17:31;;;;;;;13.90;12.50;;;13.60;99.90;;;;;;5028395;28;20421;-37
2022/10/14 02:20:15;;;;;;;17.17;12.43;;;13.60;99.90;;;;;;5031458;28;20428;-38
2022/10/14 02:22:50;;;;;;;14.93;13.00;;;13.70;99.90;;;;;;5033204;28;20428;-38
2022/10/14 02:25:20;;;;;;;13.80;11.83;;;13.60;99.90;;;;;;5028199;28;20587;-37
2022/10/14 02:27:47;;;;;;;13.27;12.00;;;13.70;99.90;;;;;;5027685;28;20421;-38
2022/10/14 02:30:14;;;;;;;13.50;12.20;;;13.70;99.90;;;;;;5028257;28;20791;-38
2022/10/14 02:32:41;;;;;;;12.50;11.20;;;13.60;99.90;;;;;;5030127;28;20477;-38
2022/10/14 02:35:09;;;;;;;13.67;12.23;;;13.60;99.90;;;;;;5031414;28;20495;-37
2022/10/14 02:37:36;;;;;;;12.80;11.00;;;13.60;99.90;;;;;;5031283;28;20429;-37
2022/10/14 02:40:13;;;;;;;11.93;10.60;;;13.60;99.90;;;;;;5031504;28;20436;-37
2022/10/14 02:42:39;;;;;;;12.40;11.10;;;13.60;99.90;;;;;;5030688;28;20424;-38
2022/10/14 02:45:08;;;;;;;12.23;10.93;;;13.70;99.90;;;;;;5030658;28;20471;-38
2022/10/14 02:47:33;;;;;;;11.80;10.60;;;13.60;99.90;;;;;;5031151;28;20469;-38
2022/10/14 02:49:59;;;;;;;13.87;11.63;;;13.60;99.90;;;;;;5031308;28;20461;-37
2022/10/14 02:52:25;;;;;;;12.70;11.47;;;13.60;99.90;;;;;;5031040;28;20182;-38
2022/10/14 02:54:50;;;;;;;12.73;11.43;;;13.50;99.90;;;;;;5029240;28;20212;-38
2022/10/14 02:57:16;;;;;;;13.20;11.87;;;13.50;99.90;;;;;;5031110;28;20197;-38
2022/10/14 02:59:41;;;;;;;12.10;10.90;;;13.50;99.90;;;;;;5030488;28;20225;-37
2022/10/14 03:02:07;;;;;;;13.73;12.33;;;13.50;99.90;;;;;;5030956;28;20190;-38
2022/10/14 03:04:33;;;;;;;12.77;11.47;;;13.60;99.90;;;;;;5029943;28;20487;-38
2022/10/14 03:06:59;;;;;;;12.90;11.60;;;13.60;99.90;;;;;;5031230;28;20575;-37
2022/10/14 03:09:25;;;;;;;13.87;11.50;;;13.60;99.90;;;;;;5030873;28;20452;-37
2022/10/14 03:11:50;;;;;;;13.90;11.50;;;13.60;99.90;;;;;;5030817;28;20191;-38
2022/10/14 03:14:16;;;;;;;13.63;12.23;;;13.60;99.90;;;;;;5029766;28;20198;-37
2022/10/14 03:16:42;;;;;;;13.37;11.60;;;13.50;99.90;;;;;;5029485;28;20190;-38
2022/10/14 03:19:07;;;;;;;13.70;12.30;;;13.60;99.90;;;;;;5030573;28;20226;-38
2022/10/14 03:21:33;;;;;;;18.43;12.30;;;13.60;99.90;;;;;;5042820;28;20194;-38
2022/10/14 03:24:00;;;;;;;14.20;12.70;;;13.60;99.90;;;;;;5029970;28;20214;-38
2022/10/14 03:26:26;;;;;;;13.87;12.13;;;13.60;99.90;;;;;;5030814;28;20241;-37
2022/10/14 03:28:51;;;;;;;14.00;12.60;;;13.60;99.90;;;;;;5030777;28;20956;-38
2022/10/14 03:31:17;;;;;;;13.60;12.20;;;13.60;99.90;;;;;;5030110;28;20417;-37
2022/10/14 03:33:42;;;;;;;13.97;12.00;;;13.60;99.90;;;;;;5029945;28;20187;-38
2022/10/14 03:36:08;;;;;;;11.90;10.40;;;13.60;99.90;;;;;;5030184;28;20195;-38
2022/10/14 03:38:34;;;;;;;13.17;11.20;;;13.60;99.90;;;;;;5030398;28;20661;-38
2022/10/14 03:40:59;;;;;;;11.37;10.27;;;13.60;99.90;;;;;;5030178;28;20297;-38
2022/10/14 03:43:27;;;;;;;13.13;11.63;;;13.60;99.90;;;;;;5028383;28;20317;-38
2022/10/14 03:45:53;;;;;;;11.27;10.07;;;13.60;99.90;;;;;;5030002;28;20225;-38
2022/10/14 03:48:19;;;;;;;13.03;11.10;;;13.60;99.90;;;;;;5030454;28;20791;-38
2022/10/14 03:50:46;;;;;;;11.70;10.50;;;13.60;99.90;;;;;;5029720;28;20434;-37
2022/10/14 03:53:12;;;;;;;11.07;9.97;;;13.50;99.90;;;;;;5029395;28;20229;-38
2022/10/14 03:55:37;;;;;;;11.50;10.20;;;13.60;99.90;;;;;;5043509;28;20453;-38
2022/10/14 03:58:03;;;;;;;14.63;9.20;;;13.60;99.90;;;;;;5029448;28;20210;-38
2022/10/14 04:00:29;;;;;;;12.03;10.70;;;13.60;99.90;;;;;;5029858;28;20194;-38
2022/10/14 04:02:55;;;;;;;13.10;10.47;;;13.60;99.90;;;;;;5029104;28;20430;-38
2022/10/14 04:05:20;;;;;;;10.67;9.60;;;13.70;99.90;;;;;;5029715;28;20202;-39
2022/10/14 04:07:46;;;;;;;10.47;9.37;;;13.60;99.90;;;;;;5029879;28;20191;-38
2022/10/14 04:10:12;;;;;;;11.60;9.97;;;13.60;99.90;;;;;;5029530;28;20243;-39
2022/10/14 04:12:39;;;;;;;11.50;10.30;;;13.60;99.90;;;;;;5028708;28;20191;-38
2022/10/14 04:15:08;;;;;;;11.63;9.17;;;13.60;99.90;;;;;;5029640;28;20190;-38
2022/10/14 04:17:34;;;;;;;11.83;10.73;;;13.60;99.90;;;;;;5029457;28;20486;-38
2022/10/14 04:20:00;;;;;;;11.23;9.23;;;13.60;99.90;;;;;;5032124;28;20794;-38
2022/10/14 04:22:26;;;;;;;10.83;9.73;;;13.60;99.90;;;;;;5037673;28;20459;-38
2022/10/14 04:24:51;;;;;;;11.03;9.70;;;13.50;99.90;;;;;;5028819;28;20469;-39
2022/10/14 04:27:17;;;;;;;10.30;8.90;;;13.50;99.90;;;;;;5029178;28;20248;-38
2022/10/14 04:29:43;;;;;;;10.50;9.40;;;13.50;99.90;;;;;;5029175;28;20562;-38
2022/10/14 04:32:09;;;;;;;10.37;9.27;;;13.50;99.90;;;;;;5029687;28;20282;-38
2022/10/14 04:34:34;;;;;;;10.33;9.23;;;13.50;99.90;;;;;;5028583;28;20198;-38
2022/10/14 04:37:00;;;;;;;10.43;9.40;;;13.50;99.90;;;;;;5028137;28;20233;-38
2022/10/14 04:39:25;;;;;;;10.17;9.17;;;13.50;99.90;;;;;;5029401;28;20198;-38
2022/10/14 04:41:51;;;;;;;9.70;8.80;;;13.50;99.90;;;;;;5026921;28;20210;-38
2022/10/14 04:44:17;;;;;;;9.80;8.83;;;13.50;99.90;;;;;;5022353;28;20223;-37
2022/10/14 04:46:42;;;;;;;9.30;8.40;;;13.50;99.90;;;;;;5029346;28;20696;-38
2022/10/14 04:49:08;;;;;;;10.43;9.43;;;13.50;99.90;;;;;;5028829;28;20194;-38
2022/10/14 04:51:34;;;;;;;10.13;9.00;;;13.60;99.90;;;;;;5029384;28;20202;-38
2022/10/14 04:54:00;;;;;;;9.30;8.40;;;13.60;99.90;;;;;;5031907;28;20503;-38
2022/10/14 04:56:25;;;;;;;9.40;8.50;;;13.60;99.90;;;;;;5028444;28;20217;-38
2022/10/14 04:58:51;;;;;;;9.47;8.57;;;13.50;99.90;;;;;;5027769;28;20218;-39
2022/10/14 05:01:17;;;;;;;9.70;8.70;;;13.50;99.90;;;;;;5027297;28;20355;-38
2022/10/14 05:03:43;;;;;;;9.83;8.87;;;13.50;99.90;;;;;;5028160;28;20222;-38
2022/10/14 05:06:09;;;;;;;10.40;9.07;;;13.60;99.90;;;;;;5028558;28;20429;-37
2022/10/14 05:08:35;;;;;;;8.47;7.67;;;13.60;99.90;;;;;;5028676;28;20432;-39
2022/10/14 05:11:02;;;;;;;9.10;8.30;;;13.60;99.90;;;;;;5028230;28;20198;-38
2022/10/14 05:13:28;;;;;;;9.60;8.70;;;13.60;99.90;;;;;;5028320;28;20439;-38
2022/10/14 05:15:54;;;;;;;8.50;7.67;;;13.60;99.90;;;;;;5028523;28;20517;-38
2022/10/14 05:18:19;;;;;;;10.13;9.17;;;13.50;99.90;;;;;;5028657;28;21153;-38
2022/10/14 05:20:45;;;;;;;8.57;7.70;;;13.50;99.90;;;;;;5036968;28;20281;-38
2022/10/14 05:23:11;;;;;;;10.73;8.80;;;13.50;99.90;;;;;;5029821;28;20194;-38
2022/10/14 05:25:36;;;;;;;9.10;8.30;;;13.50;99.90;;;;;;5028019;28;20205;-37
2022/10/14 05:28:02;;;;;;;9.70;8.73;;;13.50;99.90;;;;;;5028097;28;20191;-37
2022/10/14 05:30:28;;;;;;;7.90;7.20;;;13.60;99.90;;;;;;5026566;28;20197;-38
2022/10/14 05:32:53;;;;;;;8.97;8.10;;;13.60;99.90;;;;;;5032016;28;20276;-38
2022/10/14 05:35:19;;;;;;;9.97;8.90;;;13.60;99.90;;;;;;5048541;28;20193;-38
2022/10/14 05:37:45;;;;;;;8.63;7.83;;;13.60;99.90;;;;;;5048293;28;20205;-38
2022/10/14 05:40:11;;;;;;;8.70;7.90;;;13.60;99.90;;;;;;5047948;28;20200;-38
2022/10/14 05:42:37;;;;;;;8.90;8.10;;;13.60;99.90;;;;;;5047531;28;20204;-38
2022/10/14 05:45:03;;;;;;;7.43;6.80;;;13.60;99.90;;;;;;5043491;28;20480;-38
2022/10/14 05:47:29;;;;;;;8.07;7.30;;;13.60;99.90;;;;;;5028045;28;20433;-37
2022/10/14 05:49:54;;;;;;;8.23;7.43;;;13.60;99.90;;;;;;5028213;28;20419;-37
2022/10/14 05:52:20;;;;;;;8.07;7.27;;;13.60;99.90;;;;;;5023204;28;20195;-37
2022/10/14 05:54:46;;;;;;;8.80;7.90;;;13.60;99.90;;;;;;5017270;28;20601;-38
2022/10/14 05:57:11;;;;;;;8.83;7.80;;;13.60;99.90;;;;;;5026908;28;20190;-38
2022/10/14 05:59:37;;;;;;;7.80;7.10;;;13.60;99.90;;;;;;5028082;28;20197;-38
2022/10/14 06:02:03;;;;;;;9.03;8.23;;;13.60;99.90;;;;;;5028097;28;20200;-38
2022/10/14 06:04:28;;;;;;;7.97;7.20;;;13.70;99.90;;;;;;5027200;28;20240;-38
2022/10/14 06:06:54;;;;;;;7.77;7.07;;;13.60;99.90;;;;;;5029158;28;20186;-38
2022/10/14 06:09:20;;;;;;;7.57;6.87;;;13.50;99.90;;;;;;5031484;28;20191;-37
2022/10/14 06:11:46;;;;;;;8.03;7.23;;;13.60;99.90;;;;;;5027398;28;20229;-38
2022/10/14 06:14:12;;;;;;;7.60;6.90;;;13.60;99.90;;;;;;5029133;28;20186;-38
2022/10/14 06:16:37;;;;;;;7.40;6.70;;;13.60;99.90;;;;;;5030750;28;20182;-38
2022/10/14 06:19:03;;;;;;;7.37;6.67;;;13.70;99.90;;;;;;5031485;28;20428;-38
2022/10/14 06:21:28;;;;;;;7.80;7.13;;;13.70;99.90;;;;;;5043117;28;20198;-38
2022/10/14 06:23:54;;;;;;;7.80;7.10;;;13.70;99.90;;;;;;5027342;28;20244;-38
2022/10/14 06:26:20;;;;;;;8.53;7.73;;;13.70;99.90;;;;;;5030524;28;20478;-38
2022/10/14 06:28:46;;;;;;;7.90;7.10;;;13.70;99.90;;;;;;5031454;28;20277;-38
2022/10/14 06:31:11;;;;;;;7.97;7.17;;;13.70;99.90;;;;;;5048367;28;20234;-38
2022/10/14 06:33:37;;;;;;;6.23;5.63;;;13.80;99.90;;;;;;5050950;28;20205;-38
2022/10/14 06:36:04;;;;;;;7.77;6.33;;;13.80;99.90;;;;;;5051148;28;20760;-38
2022/10/14 06:38:30;;;;;;;7.53;6.77;;;13.80;99.90;;;;;;5051409;28;20455;-38
2022/10/14 06:40:56;;;;;;;7.03;6.43;;;13.80;99.90;;;;;;5051110;28;20427;-37
2022/10/14 06:43:22;;;;;;;6.60;6.00;;;13.80;99.90;;;;;;5046502;28;20468;-38
2022/10/14 06:45:48;;;;;;;6.27;5.70;;;13.90;99.90;;;;;;5032395;28;20265;-37
2022/10/14 06:48:14;;;;;;;6.30;5.70;;;13.90;99.90;;;;;;5030641;28;20190;-38
2022/10/14 06:50:41;;;;;;;5.10;4.70;;;13.90;99.90;;;;;;5029423;28;20956;-37
2022/10/14 06:53:06;;;;;;;6.47;5.70;;;13.90;99.90;;;;;;5017584;28;20932;-38
2022/10/14 06:55:32;;;;;;;6.87;6.17;;;13.80;99.90;;;;;;5027974;28;20416;-38
2022/10/14 06:57:58;;;;;;;7.63;5.80;;;13.90;99.90;;;;;;5030204;28;20174;-38
2022/10/14 07:00:24;;;;;;;6.70;6.10;;;13.90;99.90;;;;;;5031851;28;20438;-38
2022/10/14 07:02:49;;;;;;;6.90;6.30;;;13.90;99.90;;;;;;5027665;28;20187;-38
2022/10/14 07:05:15;;;;;;;6.70;5.40;;;13.90;99.90;;;;;;5030218;28;20222;-38
2022/10/14 07:07:41;;;;;;;7.07;6.47;;;13.90;99.90;;;;;;5029584;28;20186;-38
2022/10/14 07:10:06;;;;;;;6.90;6.20;;;13.90;99.90;;;;;;5030435;28;20201;-38
2022/10/14 07:12:32;;;;;;;6.77;6.17;;;14.00;99.90;;;;;;5029098;28;20196;-38
2022/10/14 07:14:58;;;;;;;6.93;6.30;;;14.00;99.90;;;;;;5030798;28;20574;-38
2022/10/14 07:17:24;;;;;;;6.20;5.70;;;14.00;99.90;;;;;;5029525;28;20230;-38
2022/10/14 07:19:49;;;;;;;6.40;5.80;;;14.00;99.90;;;;;;5034704;28;20197;-37
2022/10/14 07:22:16;;;;;;;6.00;5.50;;;14.00;99.90;;;;;;5037541;28;20281;-38
2022/10/14 07:24:42;;;;;;;6.33;5.73;;;14.10;99.90;;;;;;5045151;28;20213;-38
2022/10/14 07:27:09;;;;;;;7.13;5.50;;;14.10;99.90;;;;;;5029373;28;20430;-37
2022/10/14 07:29:35;;;;;;;6.43;5.30;;;14.10;99.90;;;;;;5028043;28;20441;-38
2022/10/14 07:32:01;;;;;;;5.40;4.97;;;14.10;99.90;;;;;;5041660;28;20523;-38
2022/10/14 07:34:26;;;;;;;5.80;5.40;;;14.20;99.90;;;;;;5043805;28;20425;-39
2022/10/14 07:36:52;;;;;;;5.90;5.40;;;14.20;99.90;;;;;;5030147;28;20433;-39
2022/10/14 07:39:18;;;;;;;5.23;4.73;;;14.30;99.90;;;;;;5030270;28;20258;-38
2022/10/14 07:41:44;;;;;;;4.90;4.50;;;14.30;99.90;;;;;;5028872;28;20413;-38
2022/10/14 07:44:12;;;;;;;8.07;5.40;;;14.40;99.90;;;;;;5033577;28;20221;-38
2022/10/14 07:46:42;;;;;;;6.03;5.43;;;14.30;99.90;;;;;;5049861;28;20796;-38
2022/10/14 07:49:12;;;;;;;5.10;4.70;;;14.30;99.90;;;;;;5049977;28;20515;-38
2022/10/14 07:51:40;;;;;;;5.83;5.20;;;14.30;99.90;;;;;;5049859;28;20420;-39
2022/10/14 07:54:08;;;;;;;5.93;5.43;;;14.30;99.90;;;;;;5017244;28;20429;-39
2022/10/14 07:56:38;;;;;;;8.30;5.70;;;14.30;99.90;;;;;;5029240;28;20878;-38
2022/10/14 07:59:04;;;;;;;6.10;5.50;;;14.30;99.90;;;;;;5030189;28;20788;-39
2022/10/14 08:01:30;;;;;;;5.60;5.10;;;14.40;99.90;;;;;;5041788;28;20521;-38
2022/10/14 08:03:55;;;;;;;5.70;5.20;;;14.40;99.90;;;;;;5048988;28;20213;-38
2022/10/14 08:06:21;;;;;;;4.90;4.50;;;14.40;99.90;;;;;;5048156;28;20443;-38
2022/10/14 08:08:47;;;;;;;5.47;4.97;;;14.40;99.90;;;;;;5049941;28;20238;-38
2022/10/14 08:11:15;;;;;;;5.13;4.70;;;14.40;99.90;;;;;;5049650;28;20774;-38
2022/10/14 08:13:41;;;;;;;5.20;4.70;;;14.50;99.90;;;;;;5048798;28;20190;-38
2022/10/14 08:16:14;;;;;;;5.40;4.23;;;14.50;99.90;;;;;;5049420;28;20420;-38
2022/10/14 08:18:40;;;;;;;4.10;3.70;;;14.50;99.90;;;;;;5049224;28;20451;-39
2022/10/14 08:21:06;;;;;;;4.23;3.37;;;14.50;99.90;;;;;;5049325;28;20420;-38
2022/10/14 08:23:31;;;;;;;3.83;3.47;;;14.50;99.90;;;;;;5047278;28;20217;-38
2022/10/14 08:25:57;;;;;;;3.70;3.40;;;14.50;99.90;;;;;;5049380;28;20197;-38
2022/10/14 08:28:23;;;;;;;3.80;3.50;;;14.50;99.90;;;;;;5048962;28;20243;-38
2022/10/14 08:30:49;;;;;;;4.20;3.37;;;14.50;99.90;;;;;;5049044;28;20262;-38
2022/10/14 08:33:15;;;;;;;3.67;3.37;;;14.50;99.90;;;;;;5048231;28;20436;-39
2022/10/14 08:35:40;;;;;;;3.47;3.00;;;14.50;99.90;;;;;;5032174;28;20248;-38
2022/10/14 08:38:06;;;;;;;3.77;3.43;;;14.50;99.90;;;;;;5029282;28;20622;-38
2022/10/14 08:41:07;;;;;;;3.20;2.90;;;14.50;99.90;;;;;;5029052;28;20475;-38
2022/10/14 08:44:11;;;;;;;2.90;2.70;;;14.50;99.90;;;;;;5005696;28;20652;-38
2022/10/14 08:46:39;;;;;;;2.90;2.40;;;14.50;99.90;;;;;;5019168;28;20866;-38
2022/10/14 08:49:21;;;;;;;3.10;2.77;;;14.60;99.90;;;;;;5028894;28;20846;-38
2022/10/14 08:51:53;;;;;;;3.07;2.80;;;14.60;99.90;;;;;;5028701;28;20429;-38
2022/10/14 08:54:42;;;;;;;5.00;2.60;;;14.60;99.90;;;;;;5015188;28;20420;-38
2022/10/14 08:57:16;;;;;;;2.80;2.30;;;14.60;99.90;;;;;;5028758;28;20417;-38
2022/10/14 08:59:42;;;;;;;3.20;2.90;;;14.70;99.90;;;;;;5028983;28;20417;-38
2022/10/14 09:02:23;;;;;;;2.40;2.20;;;14.70;99.90;;;;;;5028375;28;20495;-38
2022/10/14 09:04:49;;;;;;;3.60;2.50;;;14.70;99.90;;;;;;5028154;28;20465;-37
2022/10/14 09:07:17;;;;;;;2.53;2.10;;;14.70;99.90;;;;;;5028583;28;20432;-38
2022/10/14 09:09:50;;;;;;;2.50;2.30;;;14.70;99.90;;;;;;5027600;28;20197;-38
2022/10/14 09:12:28;;;;;;;2.10;2.00;;;14.70;99.90;;;;;;5028556;28;20923;-38
2022/10/14 09:15:15;;;;;;;2.50;2.30;;;14.70;99.90;;;;;;5028578;28;20473;-38
2022/10/14 09:17:48;;;;;;;2.10;2.00;;;14.70;99.90;;;;;;5028735;28;20421;-37
2022/10/14 09:20:21;;;;;;;1.73;1.63;;;14.80;99.90;;;;;;5028634;28;20432;-38
2022/10/14 09:22:59;;;;;;;2.17;1.80;;;14.80;99.90;;;;;;5027697;28;20965;-38
2022/10/14 09:25:25;;;;;;;2.47;2.20;;;14.80;99.90;;;;;;5028539;28;20834;-38
2022/10/14 09:27:51;;;;;;;3.10;2.30;;;14.80;99.90;;;;;;5028051;28;20421;-38
2022/10/14 09:30:17;;;;;;;2.17;1.97;;;14.80;99.90;;;;;;5028737;28;20798;-38
2022/10/14 09:32:52;;;;;;;2.20;1.90;;;14.80;99.90;;;;;;5028069;28;20194;-38
2022/10/14 09:35:38;;;;;;;2.00;1.87;;;14.90;99.90;;;;;;5038740;28;20432;-38
2022/10/14 09:38:04;;;;;;;2.27;1.87;;;14.80;99.90;;;;;;5048064;28;20427;-38
2022/10/14 09:40:40;;;;;;;3.10;2.10;;;14.90;99.90;;;;;;5047666;28;20436;-38
2022/10/14 09:43:08;;;;;;;2.60;2.10;;;14.90;99.90;;;;;;5047509;28;20193;-38
2022/10/14 09:45:43;;;;;;;1.83;1.73;;;14.90;99.90;;;;;;5048458;28;20463;-38
2022/10/14 09:48:33;;;;;;;1.80;1.47;;;15.00;99.90;;;;;;5047830;28;20419;-38
2022/10/14 09:51:01;;;;;;;2.10;1.90;;;15.00;99.90;;;;;;5043765;28;20507;-38
2022/10/14 09:53:30;;;;;;;2.00;1.63;;;15.10;99.90;;;;;;5020401;28;20422;-38
2022/10/14 09:56:01;;;;;;;2.53;1.73;;;15.10;99.90;;;;;;5027354;28;20706;-38
2022/10/14 09:58:49;;;;;;;2.17;1.97;;;15.20;99.90;;;;;;5027840;28;20444;-37
2022/10/14 10:01:18;;;;;;;3.07;2.10;;;15.20;99.90;;;;;;5028032;28;20513;-37
2022/10/14 10:03:46;;;;;;;2.70;1.93;;;15.30;99.90;;;;;;5006211;28;20478;-38
2022/10/14 10:06:15;;;;;;;2.17;2.07;;;15.30;99.90;;;;;;5020607;28;20528;-38
2022/10/14 10:08:59;;;;;;;2.27;2.03;;;15.30;99.90;;;;;;5027807;28;20417;-38
2022/10/14 10:11:32;;;;;;;2.17;1.97;;;15.30;99.90;;;;;;5027845;28;20429;-39
2022/10/14 10:13:58;;;;;;;3.30;2.07;;;15.40;99.90;;;;;;5027369;28;20435;-38
2022/10/14 10:16:26;;;;;;;2.30;2.10;;;15.40;99.90;;;;;;5026668;28;20433;-38
2022/10/14 10:18:54;;;;;;;2.33;2.07;;;15.40;99.90;;;;;;5027891;28;20425;-38
2022/10/14 10:21:31;;;;;;;2.87;2.20;;;15.40;99.90;;;;;;5027546;28;20421;-38
2022/10/14 10:24:02;;;;;;;2.23;2.03;;;15.50;99.90;;;;;;5027166;28;20464;-38
2022/10/14 10:26:30;;;;;;;2.10;1.97;;;15.50;99.90;;;;;;5027654;28;20426;-38
2022/10/14 10:28:57;;;;;;;2.67;2.47;;;15.50;99.90;;;;;;5027901;28;20436;-39
2022/10/14 10:31:47;;;;;;;2.43;2.23;;;15.40;99.90;;;;;;5027784;28;20912;-38
2022/10/14 10:34:45;;;;;;;3.03;2.23;;;15.40;99.90;;;;;;5028669;28;20420;-38
2022/10/14 10:37:27;;;;;;;2.60;2.33;;;15.40;99.90;;;;;;5047389;28;20451;-37
2022/10/14 10:40:16;;;;;;;4.50;2.20;;;15.40;99.90;;;;;;5047773;28;20517;-38
2022/10/14 10:42:48;;;;;;;2.80;2.60;;;15.40;99.90;;;;;;5046639;28;20432;-38
2022/10/14 10:45:16;;;;;;;2.40;2.20;;;15.40;99.90;;;;;;5047604;28;20507;-38
2022/10/14 10:47:50;;;;;;;2.00;1.90;;;15.40;99.90;;;;;;5047392;28;20938;-38
2022/10/14 10:50:35;;;;;;;2.93;2.33;;;15.50;99.90;;;;;;5046433;28;20790;-37
2022/10/14 10:53:26;;;;;;;3.20;2.57;;;15.50;99.90;;;;;;5029334;28;20432;-38
2022/10/14 10:56:13;;;;;;;2.77;2.50;;;15.50;99.90;;;;;;5015932;28;20424;-38
2022/10/14 10:59:06;;;;;;;2.40;2.20;;;15.60;99.90;;;;;;5030757;28;20441;-38
2022/10/14 11:01:38;;;;;;;3.60;2.20;;;15.60;99.90;;;;;;5031282;28;20421;-38
2022/10/14 11:04:26;;;;;;;2.50;2.30;;;15.60;99.90;;;;;;5030306;28;20475;-38
2022/10/14 11:13:01;;;;;;;2.73;2.40;;;15.70;99.90;;;;;;5030191;28;20456;-37
2022/10/14 11:15:39;;;;;;;3.97;2.90;;;15.70;99.90;;;;;;5030585;28;20522;-38
2022/10/14 11:18:11;;;;;;;3.23;2.80;;;15.70;99.90;;;;;;5030705;28;20424;-38
2022/10/14 11:21:03;;;;;;;4.97;3.10;;;15.60;99.90;;;;;;5030546;28;20464;-38
2022/10/14 11:23:58;;;;;;;4.07;3.00;;;15.70;99.90;;;;;;5029796;28;20483;-38
2022/10/14 11:26:40;;;;;;;4.30;3.47;;;15.70;99.90;;;;;;5030471;28;20432;-38
2022/10/14 11:29:26;;;;;;;4.00;3.60;;;15.70;99.90;;;;;;5030717;28;20460;-37
2022/10/14 11:32:11;;;;;;;4.00;3.60;;;15.80;99.90;;;;;;5030504;28;20424;-38
2022/10/14 11:34:49;;;;;;;5.70;3.90;;;15.80;99.90;;;;;;5034797;28;20435;-38
2022/10/14 11:37:23;;;;;;;4.57;3.90;;;15.80;99.90;;;;;;5050377;28;20455;-38
2022/10/14 11:39:54;;;;;;;4.30;3.70;;;15.80;99.90;;;;;;5050380;28;20461;-38
2022/10/14 11:42:49;;;;;;;4.40;3.67;;;15.80;99.90;;;;;;5049963;28;20455;-38
2022/10/14 11:45:34;;;;;;;5.17;3.77;;;15.90;99.90;;;;;;5046915;28;20483;-38
2022/10/14 11:48:16;;;;;;;7.10;4.13;;;15.80;99.90;;;;;;5050139;28;20983;-39
2022/10/14 11:50:46;;;;;;;5.70;5.20;;;15.90;99.90;;;;;;5050122;28;20432;-38
2022/10/14 11:53:19;;;;;;;8.43;5.50;;;15.90;99.90;;;;;;5026503;28;20437;-38
2022/10/14 11:56:28;;;;;;;5.87;5.03;;;15.90;99.90;;;;;;5028221;28;20449;-38
2022/10/14 12:01:43;;;;;;;7.70;5.37;;;15.90;99.90;;;;;;5029800;28;20449;-38
2022/10/14 12:04:17;;;;;;;5.87;5.33;;;15.90;99.90;;;;;;5028390;28;20526;-38
2022/10/14 12:06:51;;;;;;;6.13;5.53;;;15.90;99.90;;;;;;5029843;28;20506;-38
2022/10/14 12:09:49;;;;;;;6.97;5.20;;;16.00;99.90;;;;;;5029713;28;20424;-38
2022/10/14 12:12:19;;;;;;;5.87;5.37;;;16.00;99.90;;;;;;5028555;28;20510;-38
2022/10/14 12:14:54;;;;;;;6.77;5.70;;;16.00;99.90;;;;;;5029045;28;20459;-38
2022/10/14 12:17:22;;;;;;;6.83;5.13;;;15.90;99.90;;;;;;5030046;28;20797;-38
2022/10/14 12:19:48;;;;;;;9.27;5.67;;;16.00;99.90;;;;;;5029342;28;20424;-38
2022/10/14 12:22:18;;;;;;;6.77;5.90;;;15.90;99.90;;;;;;5029286;28;20444;-38
2022/10/14 12:24:57;;;;;;;7.07;5.53;;;15.90;99.90;;;;;;5028693;28;20464;-39
2022/10/14 12:27:25;;;;;;;6.20;5.60;;;15.90;99.90;;;;;;5029484;28;20428;-38
2022/10/14 12:29:53;;;;;;;7.20;6.03;;;15.90;99.90;;;;;;5029732;28;20943;-38
2022/10/14 12:32:25;;;;;;;7.43;6.53;;;15.80;99.90;;;;;;5029260;28;20413;-38
2022/10/14 12:35:01;;;;;;;6.30;5.70;;;15.80;99.90;;;;;;5036012;28;20475;-38
2022/10/14 12:37:41;;;;;;;6.93;5.80;;;15.80;99.90;;;;;;5049024;28;20844;-38
2022/10/14 12:40:12;;;;;;;7.10;6.40;;;15.80;99.90;;;;;;5049285;28;20424;-38
2022/10/14 12:42:56;;;;;;;8.73;6.63;;;15.90;99.90;;;;;;5048361;28;20431;-37
2022/10/14 12:45:27;;;;;;;8.97;6.47;;;15.90;99.90;;;;;;5047634;28;20479;-38
2022/10/14 12:48:22;;;;;;;8.90;7.00;;;15.80;99.90;;;;;;5048777;28;20539;-38
2022/10/14 12:50:51;;;;;;;6.53;5.83;;;15.90;99.90;;;;;;5048850;28;20431;-38
2022/10/14 12:53:22;;;;;;;9.40;6.70;;;15.80;99.90;;;;;;5024093;28;20422;-38
2022/10/14 12:55:53;;;;;;;8.20;7.00;;;15.80;99.90;;;;;;5028543;28;20808;-38
2022/10/14 12:58:53;;;;;;;8.90;6.63;;;15.80;99.90;;;;;;5028542;28;21210;-38
2022/10/14 13:01:23;;;;;;;7.80;6.83;;;15.80;99.90;;;;;;5029016;28;20421;-38
2022/10/14 13:04:17;;;;;;;10.23;7.67;;;15.70;99.90;;;;;;5027593;28;20495;-38
2022/10/14 13:06:43;;;;;;;7.27;6.50;;;15.70;99.90;;;;;;5029098;28;20467;-38
2022/10/14 13:09:11;;;;;;;9.00;7.47;;;15.70;99.90;;;;;;5029005;28;20437;-38